sensor_id;sensor_type;location;lat;lon;timestamp;P1;durP1;ratioP1;P2;durP2;ratioP2
41101;SDS011;26845;50.190;19.178;2024-02-21T00:00:42;13.00;;;6.50;;
41101;SDS011;26845;50.190;19.178;2024-02-21T00:03:22;13.90;;;6.60;;
41101;SDS011;26845;50.190;19.178;2024-02-21T00:06:02;13.70;;;7.10;;
41101;SDS011;26845;50.190;19.178;2024-02-21T00:08:42;13.00;;;5.70;;
41101;SDS011;26845;50.190;19.178;2024-02-21T00:11:22;17.30;;;7.30;;
41101;SDS011;26845;50.190;19.178;2024-02-21T00:14:02;13.10;;;5.90;;
41101;SDS011;26845;50.190;19.178;2024-02-21T00:16:42;13.20;;;6.50;;
41101;SDS011;26845;50.190;19.178;2024-02-21T00:19:22;19.50;;;7.40;;
41101;SDS011;26845;50.190;19.178;2024-02-21T00:22:02;13.10;;;6.70;;
41101;SDS011;26845;50.190;19.178;2024-02-21T00:24:42;14.90;;;5.60;;
41101;SDS011;26845;50.190;19.178;2024-02-21T00:27:22;15.80;;;6.20;;
41101;SDS011;26845;50.190;19.178;2024-02-21T00:30:02;11.70;;;5.30;;
41101;SDS011;26845;50.190;19.178;2024-02-21T00:32:42;11.80;;;5.90;;
41101;SDS011;26845;50.190;19.178;2024-02-21T00:35:23;9.50;;;5.30;;
41101;SDS011;26845;50.190;19.178;2024-02-21T00:38:03;14.00;;;5.30;;
41101;SDS011;26845;50.190;19.178;2024-02-21T00:40:43;11.90;;;5.90;;
41101;SDS011;26845;50.190;19.178;2024-02-21T00:43:23;12.70;;;5.70;;
41101;SDS011;26845;50.190;19.178;2024-02-21T00:46:05;23.60;;;6.40;;
41101;SDS011;26845;50.190;19.178;2024-02-21T00:48:43;12.50;;;5.50;;
41101;SDS011;26845;50.190;19.178;2024-02-21T00:51:23;21.40;;;6.20;;
41101;SDS011;26845;50.190;19.178;2024-02-21T00:54:03;15.70;;;6.00;;
41101;SDS011;26845;50.190;19.178;2024-02-21T00:56:43;13.70;;;5.80;;
41101;SDS011;26845;50.190;19.178;2024-02-21T00:59:23;15.80;;;6.60;;
41101;SDS011;26845;50.190;19.178;2024-02-21T01:02:03;13.20;;;5.70;;
41101;SDS011;26845;50.190;19.178;2024-02-21T01:04:43;12.30;;;5.50;;
41101;SDS011;26845;50.190;19.178;2024-02-21T01:10:03;15.50;;;6.80;;
41101;SDS011;26845;50.190;19.178;2024-02-21T01:12:43;15.90;;;6.40;;
41101;SDS011;26845;50.190;19.178;2024-02-21T01:15:23;10.40;;;5.80;;
41101;SDS011;26845;50.190;19.178;2024-02-21T01:18:03;13.50;;;6.10;;
41101;SDS011;26845;50.190;19.178;2024-02-21T01:20:43;23.50;;;8.10;;
41101;SDS011;26845;50.190;19.178;2024-02-21T01:23:23;25.70;;;8.10;;
41101;SDS011;26845;50.190;19.178;2024-02-21T01:26:03;20.10;;;7.50;;
41101;SDS011;26845;50.190;19.178;2024-02-21T01:28:43;18.90;;;9.60;;
41101;SDS011;26845;50.190;19.178;2024-02-21T01:31:23;19.80;;;9.20;;
41101;SDS011;26845;50.190;19.178;2024-02-21T01:34:03;19.20;;;8.80;;
41101;SDS011;26845;50.190;19.178;2024-02-21T01:36:43;21.50;;;9.50;;
41101;SDS011;26845;50.190;19.178;2024-02-21T01:39:23;19.10;;;8.80;;
41101;SDS011;26845;50.190;19.178;2024-02-21T01:42:03;19.30;;;8.40;;
41101;SDS011;26845;50.190;19.178;2024-02-21T01:44:43;16.00;;;8.60;;
41101;SDS011;26845;50.190;19.178;2024-02-21T01:47:23;19.60;;;7.90;;
41101;SDS011;26845;50.190;19.178;2024-02-21T01:52:58;21.20;;;9.60;;
41101;SDS011;26845;50.190;19.178;2024-02-21T01:55:38;22.50;;;8.70;;
41101;SDS011;26845;50.190;19.178;2024-02-21T01:58:18;23.40;;;9.40;;
41101;SDS011;26845;50.190;19.178;2024-02-21T02:00:58;16.80;;;9.10;;
41101;SDS011;26845;50.190;19.178;2024-02-21T02:03:38;26.40;;;9.70;;
41101;SDS011;26845;50.190;19.178;2024-02-21T02:06:18;22.20;;;8.50;;
41101;SDS011;26845;50.190;19.178;2024-02-21T02:08:58;16.60;;;8.60;;
41101;SDS011;26845;50.190;19.178;2024-02-21T02:11:38;24.80;;;9.50;;
41101;SDS011;26845;50.190;19.178;2024-02-21T02:14:18;20.60;;;8.00;;
41101;SDS011;26845;50.190;19.178;2024-02-21T02:16:58;30.60;;;10.30;;
41101;SDS011;26845;50.190;19.178;2024-02-21T02:19:38;29.30;;;10.30;;
41101;SDS011;26845;50.190;19.178;2024-02-21T02:22:19;25.20;;;9.80;;
41101;SDS011;26845;50.190;19.178;2024-02-21T02:24:58;27.80;;;11.20;;
41101;SDS011;26845;50.190;19.178;2024-02-21T02:27:41;25.30;;;11.50;;
41101;SDS011;26845;50.190;19.178;2024-02-21T02:30:21;33.70;;;12.20;;
41101;SDS011;26845;50.190;19.178;2024-02-21T02:33:01;24.90;;;10.10;;
41101;SDS011;26845;50.190;19.178;2024-02-21T02:35:41;26.80;;;10.60;;
41101;SDS011;26845;50.190;19.178;2024-02-21T02:38:21;20.60;;;9.40;;
41101;SDS011;26845;50.190;19.178;2024-02-21T02:41:01;26.10;;;10.70;;
41101;SDS011;26845;50.190;19.178;2024-02-21T02:43:41;23.60;;;11.00;;
41101;SDS011;26845;50.190;19.178;2024-02-21T02:46:21;26.30;;;11.00;;
41101;SDS011;26845;50.190;19.178;2024-02-21T02:49:01;25.70;;;11.10;;
41101;SDS011;26845;50.190;19.178;2024-02-21T02:51:41;22.10;;;9.70;;
41101;SDS011;26845;50.190;19.178;2024-02-21T02:54:21;23.40;;;9.10;;
41101;SDS011;26845;50.190;19.178;2024-02-21T02:57:01;26.40;;;10.20;;
41101;SDS011;26845;50.190;19.178;2024-02-21T02:59:41;20.60;;;9.20;;
41101;SDS011;26845;50.190;19.178;2024-02-21T03:02:21;19.50;;;8.80;;
41101;SDS011;26845;50.190;19.178;2024-02-21T03:05:01;22.40;;;8.20;;
41101;SDS011;26845;50.190;19.178;2024-02-21T03:07:42;21.80;;;9.10;;
41101;SDS011;26845;50.190;19.178;2024-02-21T03:10:22;19.90;;;9.50;;
41101;SDS011;26845;50.190;19.178;2024-02-21T03:13:02;19.80;;;8.90;;
41101;SDS011;26845;50.190;19.178;2024-02-21T03:15:42;16.50;;;7.80;;
41101;SDS011;26845;50.190;19.178;2024-02-21T03:18:22;28.40;;;10.20;;
41101;SDS011;26845;50.190;19.178;2024-02-21T03:21:02;20.20;;;9.60;;
41101;SDS011;26845;50.190;19.178;2024-02-21T03:23:42;19.60;;;9.00;;
41101;SDS011;26845;50.190;19.178;2024-02-21T03:26:22;17.70;;;7.70;;
41101;SDS011;26845;50.190;19.178;2024-02-21T03:29:02;18.90;;;8.10;;
41101;SDS011;26845;50.190;19.178;2024-02-21T03:31:42;22.60;;;8.70;;
41101;SDS011;26845;50.190;19.178;2024-02-21T03:34:22;22.10;;;8.50;;
41101;SDS011;26845;50.190;19.178;2024-02-21T03:37:02;19.70;;;8.50;;
41101;SDS011;26845;50.190;19.178;2024-02-21T03:39:42;15.80;;;7.80;;
41101;SDS011;26845;50.190;19.178;2024-02-21T03:42:21;25.60;;;8.20;;
41101;SDS011;26845;50.190;19.178;2024-02-21T03:45:02;22.40;;;9.60;;
41101;SDS011;26845;50.190;19.178;2024-02-21T03:47:42;21.60;;;9.40;;
41101;SDS011;26845;50.190;19.178;2024-02-21T03:50:22;14.50;;;9.50;;
41101;SDS011;26845;50.190;19.178;2024-02-21T03:53:02;19.80;;;8.40;;
41101;SDS011;26845;50.190;19.178;2024-02-21T03:55:41;19.70;;;7.60;;
41101;SDS011;26845;50.190;19.178;2024-02-21T03:58:22;23.50;;;9.30;;
41101;SDS011;26845;50.190;19.178;2024-02-21T04:01:03;20.80;;;8.20;;
41101;SDS011;26845;50.190;19.178;2024-02-21T04:03:45;22.10;;;9.70;;
41101;SDS011;26845;50.190;19.178;2024-02-21T04:06:26;17.60;;;8.50;;
41101;SDS011;26845;50.190;19.178;2024-02-21T04:09:07;19.70;;;8.60;;
41101;SDS011;26845;50.190;19.178;2024-02-21T04:11:46;18.10;;;8.70;;
41101;SDS011;26845;50.190;19.178;2024-02-21T04:14:26;23.40;;;8.80;;
41101;SDS011;26845;50.190;19.178;2024-02-21T04:17:06;20.00;;;9.80;;
41101;SDS011;26845;50.190;19.178;2024-02-21T04:19:46;22.10;;;10.10;;
41101;SDS011;26845;50.190;19.178;2024-02-21T04:22:26;15.80;;;7.60;;
41101;SDS011;26845;50.190;19.178;2024-02-21T04:25:07;23.30;;;8.50;;
41101;SDS011;26845;50.190;19.178;2024-02-21T04:27:46;18.10;;;8.40;;
41101;SDS011;26845;50.190;19.178;2024-02-21T04:30:26;21.50;;;8.70;;
41101;SDS011;26845;50.190;19.178;2024-02-21T04:33:06;18.70;;;8.60;;
41101;SDS011;26845;50.190;19.178;2024-02-21T04:35:46;16.90;;;8.60;;
41101;SDS011;26845;50.190;19.178;2024-02-21T04:38:26;23.30;;;9.80;;
41101;SDS011;26845;50.190;19.178;2024-02-21T04:41:06;25.30;;;9.10;;
41101;SDS011;26845;50.190;19.178;2024-02-21T04:43:48;24.40;;;9.50;;
41101;SDS011;26845;50.190;19.178;2024-02-21T04:46:27;21.80;;;9.40;;
41101;SDS011;26845;50.190;19.178;2024-02-21T04:49:07;23.10;;;9.10;;
41101;SDS011;26845;50.190;19.178;2024-02-21T04:51:47;25.00;;;10.00;;
41101;SDS011;26845;50.190;19.178;2024-02-21T04:54:27;20.10;;;8.60;;
41101;SDS011;26845;50.190;19.178;2024-02-21T04:57:07;20.50;;;8.80;;
41101;SDS011;26845;50.190;19.178;2024-02-21T04:59:47;23.40;;;9.40;;
41101;SDS011;26845;50.190;19.178;2024-02-21T05:02:27;18.60;;;8.30;;
41101;SDS011;26845;50.190;19.178;2024-02-21T05:05:07;18.20;;;8.30;;
41101;SDS011;26845;50.190;19.178;2024-02-21T05:07:47;20.30;;;8.70;;
41101;SDS011;26845;50.190;19.178;2024-02-21T05:10:27;21.30;;;8.70;;
41101;SDS011;26845;50.190;19.178;2024-02-21T05:13:07;21.20;;;9.00;;
41101;SDS011;26845;50.190;19.178;2024-02-21T05:15:48;18.30;;;9.00;;
41101;SDS011;26845;50.190;19.178;2024-02-21T05:18:27;21.70;;;9.10;;
41101;SDS011;26845;50.190;19.178;2024-02-21T05:21:08;24.50;;;8.90;;
41101;SDS011;26845;50.190;19.178;2024-02-21T05:23:47;18.00;;;8.30;;
41101;SDS011;26845;50.190;19.178;2024-02-21T05:26:27;21.60;;;8.30;;
41101;SDS011;26845;50.190;19.178;2024-02-21T05:29:07;16.60;;;8.10;;
41101;SDS011;26845;50.190;19.178;2024-02-21T05:34:30;20.30;;;8.80;;
41101;SDS011;26845;50.190;19.178;2024-02-21T05:37:10;20.60;;;8.20;;
41101;SDS011;26845;50.190;19.178;2024-02-21T05:39:50;20.10;;;9.70;;
41101;SDS011;26845;50.190;19.178;2024-02-21T05:42:30;18.60;;;10.00;;
41101;SDS011;26845;50.190;19.178;2024-02-21T05:45:10;17.20;;;8.80;;
41101;SDS011;26845;50.190;19.178;2024-02-21T05:47:50;21.10;;;9.30;;
41101;SDS011;26845;50.190;19.178;2024-02-21T05:50:30;19.70;;;10.00;;
41101;SDS011;26845;50.190;19.178;2024-02-21T05:53:10;19.00;;;9.80;;
41101;SDS011;26845;50.190;19.178;2024-02-21T05:55:50;18.70;;;9.90;;
41101;SDS011;26845;50.190;19.178;2024-02-21T05:58:30;18.00;;;9.10;;
41101;SDS011;26845;50.190;19.178;2024-02-21T06:01:11;21.00;;;10.20;;
41101;SDS011;26845;50.190;19.178;2024-02-21T06:03:50;21.10;;;10.00;;
41101;SDS011;26845;50.190;19.178;2024-02-21T06:06:30;18.80;;;10.40;;
41101;SDS011;26845;50.190;19.178;2024-02-21T06:09:10;18.50;;;10.00;;
41101;SDS011;26845;50.190;19.178;2024-02-21T06:11:50;17.60;;;9.60;;
41101;SDS011;26845;50.190;19.178;2024-02-21T06:14:30;17.20;;;8.90;;
41101;SDS011;26845;50.190;19.178;2024-02-21T06:17:10;23.70;;;10.10;;
41101;SDS011;26845;50.190;19.178;2024-02-21T06:19:50;22.10;;;10.00;;
41101;SDS011;26845;50.190;19.178;2024-02-21T06:22:30;16.50;;;9.50;;
41101;SDS011;26845;50.190;19.178;2024-02-21T06:25:10;19.90;;;10.70;;
41101;SDS011;26845;50.190;19.178;2024-02-21T06:27:50;18.80;;;9.70;;
41101;SDS011;26845;50.190;19.178;2024-02-21T06:30:32;20.80;;;11.10;;
41101;SDS011;26845;50.190;19.178;2024-02-21T06:33:12;18.60;;;10.00;;
41101;SDS011;26845;50.190;19.178;2024-02-21T06:35:52;21.70;;;9.80;;
41101;SDS011;26845;50.190;19.178;2024-02-21T06:38:32;17.70;;;9.30;;
41101;SDS011;26845;50.190;19.178;2024-02-21T06:41:17;16.80;;;8.90;;
41101;SDS011;26845;50.190;19.178;2024-02-21T06:43:56;22.20;;;9.50;;
41101;SDS011;26845;50.190;19.178;2024-02-21T06:46:36;20.60;;;9.50;;
41101;SDS011;26845;50.190;19.178;2024-02-21T06:49:16;14.30;;;8.40;;
41101;SDS011;26845;50.190;19.178;2024-02-21T06:51:58;14.60;;;8.00;;
41101;SDS011;26845;50.190;19.178;2024-02-21T06:54:37;13.80;;;7.30;;
41101;SDS011;26845;50.190;19.178;2024-02-21T06:57:17;19.10;;;7.70;;
41101;SDS011;26845;50.190;19.178;2024-02-21T06:59:57;16.10;;;7.60;;
41101;SDS011;26845;50.190;19.178;2024-02-21T07:02:37;13.80;;;7.20;;
41101;SDS011;26845;50.190;19.178;2024-02-21T07:05:17;12.10;;;6.90;;
41101;SDS011;26845;50.190;19.178;2024-02-21T07:07:57;12.60;;;5.80;;
41101;SDS011;26845;50.190;19.178;2024-02-21T07:10:37;18.30;;;7.30;;
41101;SDS011;26845;50.190;19.178;2024-02-21T07:13:17;17.80;;;5.90;;
41101;SDS011;26845;50.190;19.178;2024-02-21T07:15:57;14.10;;;5.80;;
41101;SDS011;26845;50.190;19.178;2024-02-21T07:18:37;14.10;;;5.50;;
41101;SDS011;26845;50.190;19.178;2024-02-21T07:21:17;12.50;;;5.80;;
41101;SDS011;26845;50.190;19.178;2024-02-21T07:23:57;12.80;;;5.60;;
41101;SDS011;26845;50.190;19.178;2024-02-21T07:26:40;12.30;;;6.60;;
41101;SDS011;26845;50.190;19.178;2024-02-21T07:29:17;16.30;;;5.90;;
41101;SDS011;26845;50.190;19.178;2024-02-21T07:31:59;15.10;;;7.10;;
41101;SDS011;26845;50.190;19.178;2024-02-21T07:34:39;15.90;;;7.30;;
41101;SDS011;26845;50.190;19.178;2024-02-21T07:37:19;15.70;;;7.20;;
41101;SDS011;26845;50.190;19.178;2024-02-21T07:39:59;20.40;;;8.90;;
41101;SDS011;26845;50.190;19.178;2024-02-21T07:42:40;14.40;;;8.00;;
41101;SDS011;26845;50.190;19.178;2024-02-21T07:45:19;20.00;;;8.00;;
41101;SDS011;26845;50.190;19.178;2024-02-21T07:47:59;13.10;;;6.60;;
41101;SDS011;26845;50.190;19.178;2024-02-21T07:50:39;15.40;;;6.70;;
41101;SDS011;26845;50.190;19.178;2024-02-21T07:53:19;19.60;;;8.10;;
41101;SDS011;26845;50.190;19.178;2024-02-21T07:55:59;21.70;;;8.30;;
41101;SDS011;26845;50.190;19.178;2024-02-21T07:58:40;19.30;;;9.50;;
41101;SDS011;26845;50.190;19.178;2024-02-21T08:01:19;22.50;;;8.20;;
41101;SDS011;26845;50.190;19.178;2024-02-21T08:03:59;14.30;;;7.80;;
41101;SDS011;26845;50.190;19.178;2024-02-21T08:06:39;21.80;;;8.50;;
41101;SDS011;26845;50.190;19.178;2024-02-21T08:09:19;16.90;;;8.30;;
41101;SDS011;26845;50.190;19.178;2024-02-21T08:11:59;19.80;;;8.30;;
41101;SDS011;26845;50.190;19.178;2024-02-21T08:14:39;15.90;;;8.10;;
41101;SDS011;26845;50.190;19.178;2024-02-21T08:17:19;19.20;;;8.50;;
41101;SDS011;26845;50.190;19.178;2024-02-21T08:19:59;20.60;;;8.40;;
41101;SDS011;26845;50.190;19.178;2024-02-21T08:22:39;15.30;;;8.00;;
41101;SDS011;26845;50.190;19.178;2024-02-21T08:25:19;13.80;;;8.20;;
41101;SDS011;26845;50.190;19.178;2024-02-21T08:27:59;18.90;;;8.20;;
41101;SDS011;26845;50.190;19.178;2024-02-21T08:30:39;17.20;;;7.30;;
41101;SDS011;26845;50.190;19.178;2024-02-21T08:33:19;15.50;;;6.60;;
41101;SDS011;26845;50.190;19.178;2024-02-21T08:35:59;12.80;;;6.10;;
41101;SDS011;26845;50.190;19.178;2024-02-21T08:38:39;14.40;;;5.90;;
41101;SDS011;26845;50.190;19.178;2024-02-21T08:41:19;14.20;;;5.30;;
41101;SDS011;26845;50.190;19.178;2024-02-21T08:43:59;15.10;;;6.90;;
41101;SDS011;26845;50.190;19.178;2024-02-21T08:46:39;19.20;;;6.90;;
41101;SDS011;26845;50.190;19.178;2024-02-21T08:49:19;16.00;;;7.30;;
41101;SDS011;26845;50.190;19.178;2024-02-21T08:51:59;13.20;;;5.80;;
41101;SDS011;26845;50.190;19.178;2024-02-21T08:54:40;19.60;;;6.70;;
41101;SDS011;26845;50.190;19.178;2024-02-21T08:57:20;16.00;;;6.40;;
41101;SDS011;26845;50.190;19.178;2024-02-21T09:00:00;21.00;;;7.50;;
41101;SDS011;26845;50.190;19.178;2024-02-21T09:02:40;16.30;;;6.90;;
41101;SDS011;26845;50.190;19.178;2024-02-21T09:05:20;14.90;;;8.20;;
41101;SDS011;26845;50.190;19.178;2024-02-21T09:08:00;14.40;;;6.50;;
41101;SDS011;26845;50.190;19.178;2024-02-21T09:10:40;16.00;;;6.20;;
41101;SDS011;26845;50.190;19.178;2024-02-21T09:13:20;18.70;;;6.60;;
41101;SDS011;26845;50.190;19.178;2024-02-21T09:16:00;14.60;;;6.20;;
41101;SDS011;26845;50.190;19.178;2024-02-21T09:18:40;14.40;;;6.30;;
41101;SDS011;26845;50.190;19.178;2024-02-21T09:21:20;16.80;;;6.10;;
41101;SDS011;26845;50.190;19.178;2024-02-21T09:24:00;17.50;;;7.40;;
41101;SDS011;26845;50.190;19.178;2024-02-21T09:26:40;16.30;;;5.60;;
41101;SDS011;26845;50.190;19.178;2024-02-21T09:29:20;12.60;;;5.10;;
41101;SDS011;26845;50.190;19.178;2024-02-21T09:32:00;13.20;;;5.50;;
41101;SDS011;26845;50.190;19.178;2024-02-21T09:34:40;18.90;;;5.50;;
41101;SDS011;26845;50.190;19.178;2024-02-21T09:37:20;15.00;;;6.40;;
41101;SDS011;26845;50.190;19.178;2024-02-21T09:40:00;13.90;;;5.40;;
41101;SDS011;26845;50.190;19.178;2024-02-21T09:42:41;13.10;;;5.40;;
41101;SDS011;26845;50.190;19.178;2024-02-21T09:45:21;13.70;;;5.50;;
41101;SDS011;26845;50.190;19.178;2024-02-21T09:48:11;12.80;;;5.60;;
41101;SDS011;26845;50.190;19.178;2024-02-21T09:50:43;15.50;;;5.70;;
41101;SDS011;26845;50.190;19.178;2024-02-21T09:53:24;16.30;;;5.70;;
41101;SDS011;26845;50.190;19.178;2024-02-21T09:56:04;14.20;;;5.60;;
41101;SDS011;26845;50.190;19.178;2024-02-21T09:58:43;16.60;;;5.80;;
41101;SDS011;26845;50.190;19.178;2024-02-21T10:01:24;12.10;;;5.20;;
41101;SDS011;26845;50.190;19.178;2024-02-21T10:04:04;12.20;;;5.60;;
41101;SDS011;26845;50.190;19.178;2024-02-21T10:06:44;16.00;;;5.60;;
41101;SDS011;26845;50.190;19.178;2024-02-21T10:09:25;15.20;;;5.50;;
41101;SDS011;26845;50.190;19.178;2024-02-21T10:12:10;15.30;;;4.90;;
41101;SDS011;26845;50.190;19.178;2024-02-21T10:14:47;10.50;;;4.00;;
41101;SDS011;26845;50.190;19.178;2024-02-21T10:17:27;8.50;;;4.30;;
41101;SDS011;26845;50.190;19.178;2024-02-21T10:20:08;11.30;;;4.40;;
41101;SDS011;26845;50.190;19.178;2024-02-21T10:22:47;14.10;;;4.70;;
41101;SDS011;26845;50.190;19.178;2024-02-21T10:25:27;12.70;;;4.30;;
41101;SDS011;26845;50.190;19.178;2024-02-21T10:28:07;9.00;;;4.00;;
41101;SDS011;26845;50.190;19.178;2024-02-21T10:30:50;17.00;;;4.40;;
41101;SDS011;26845;50.190;19.178;2024-02-21T10:33:30;14.90;;;4.30;;
41101;SDS011;26845;50.190;19.178;2024-02-21T10:36:10;9.00;;;3.10;;
41101;SDS011;26845;50.190;19.178;2024-02-21T10:38:51;10.00;;;4.60;;
41101;SDS011;26845;50.190;19.178;2024-02-21T10:41:30;12.80;;;4.00;;
41101;SDS011;26845;50.190;19.178;2024-02-21T10:44:10;11.60;;;4.10;;
41101;SDS011;26845;50.190;19.178;2024-02-21T10:46:50;11.60;;;4.70;;
41101;SDS011;26845;50.190;19.178;2024-02-21T10:49:30;14.00;;;4.00;;
41101;SDS011;26845;50.190;19.178;2024-02-21T10:55:26;13.40;;;4.00;;
41101;SDS011;26845;50.190;19.178;2024-02-21T10:58:01;7.30;;;3.30;;
41101;SDS011;26845;50.190;19.178;2024-02-21T11:00:41;9.10;;;4.10;;
41101;SDS011;26845;50.190;19.178;2024-02-21T11:03:21;11.30;;;3.90;;
41101;SDS011;26845;50.190;19.178;2024-02-21T11:06:01;9.10;;;4.10;;
41101;SDS011;26845;50.190;19.178;2024-02-21T11:08:41;10.00;;;3.40;;
41101;SDS011;26845;50.190;19.178;2024-02-21T11:11:23;12.60;;;4.00;;
41101;SDS011;26845;50.190;19.178;2024-02-21T11:14:06;12.30;;;4.10;;
41101;SDS011;26845;50.190;19.178;2024-02-21T11:16:45;9.70;;;3.70;;
41101;SDS011;26845;50.190;19.178;2024-02-21T11:19:27;11.30;;;3.50;;
41101;SDS011;26845;50.190;19.178;2024-02-21T11:22:14;10.40;;;3.10;;
41101;SDS011;26845;50.190;19.178;2024-02-21T11:24:47;9.80;;;3.40;;
41101;SDS011;26845;50.190;19.178;2024-02-21T11:27:27;9.60;;;3.40;;
41101;SDS011;26845;50.190;19.178;2024-02-21T11:30:07;8.60;;;3.60;;
41101;SDS011;26845;50.190;19.178;2024-02-21T11:32:47;9.70;;;3.90;;
41101;SDS011;26845;50.190;19.178;2024-02-21T11:35:30;11.70;;;3.80;;
41101;SDS011;26845;50.190;19.178;2024-02-21T11:38:11;15.30;;;4.30;;
41101;SDS011;26845;50.190;19.178;2024-02-21T11:40:51;10.70;;;3.70;;
41101;SDS011;26845;50.190;19.178;2024-02-21T11:43:31;11.10;;;3.50;;
41101;SDS011;26845;50.190;19.178;2024-02-21T11:46:11;8.80;;;3.20;;
41101;SDS011;26845;50.190;19.178;2024-02-21T11:48:51;10.70;;;4.20;;
41101;SDS011;26845;50.190;19.178;2024-02-21T11:51:31;7.70;;;3.20;;
41101;SDS011;26845;50.190;19.178;2024-02-21T11:54:11;8.60;;;3.60;;
41101;SDS011;26845;50.190;19.178;2024-02-21T11:56:51;10.70;;;3.50;;
41101;SDS011;26845;50.190;19.178;2024-02-21T11:59:33;9.60;;;3.80;;
41101;SDS011;26845;50.190;19.178;2024-02-21T12:02:12;9.00;;;3.00;;
41101;SDS011;26845;50.190;19.178;2024-02-21T12:04:52;7.30;;;3.00;;
41101;SDS011;26845;50.190;19.178;2024-02-21T12:07:32;12.70;;;4.10;;
41101;SDS011;26845;50.190;19.178;2024-02-21T12:10:12;11.50;;;3.20;;
41101;SDS011;26845;50.190;19.178;2024-02-21T12:12:52;9.60;;;3.00;;
41101;SDS011;26845;50.190;19.178;2024-02-21T12:15:32;8.80;;;3.10;;
41101;SDS011;26845;50.190;19.178;2024-02-21T12:18:12;9.90;;;3.00;;
41101;SDS011;26845;50.190;19.178;2024-02-21T12:20:52;12.50;;;3.40;;
41101;SDS011;26845;50.190;19.178;2024-02-21T12:23:32;10.50;;;3.80;;
41101;SDS011;26845;50.190;19.178;2024-02-21T12:26:12;11.80;;;3.50;;
41101;SDS011;26845;50.190;19.178;2024-02-21T12:28:53;11.70;;;3.60;;
41101;SDS011;26845;50.190;19.178;2024-02-21T12:31:32;8.50;;;2.80;;
41101;SDS011;26845;50.190;19.178;2024-02-21T12:34:12;16.70;;;3.50;;
41101;SDS011;26845;50.190;19.178;2024-02-21T12:36:53;9.00;;;3.30;;
41101;SDS011;26845;50.190;19.178;2024-02-21T12:39:33;14.40;;;5.10;;
41101;SDS011;26845;50.190;19.178;2024-02-21T12:42:13;16.10;;;4.50;;
41101;SDS011;26845;50.190;19.178;2024-02-21T12:44:53;14.00;;;3.90;;
41101;SDS011;26845;50.190;19.178;2024-02-21T12:47:34;13.60;;;4.10;;
41101;SDS011;26845;50.190;19.178;2024-02-21T12:50:14;12.20;;;3.70;;
41101;SDS011;26845;50.190;19.178;2024-02-21T12:52:54;9.80;;;4.00;;
41101;SDS011;26845;50.190;19.178;2024-02-21T12:55:34;12.30;;;4.30;;
41101;SDS011;26845;50.190;19.178;2024-02-21T12:58:14;10.50;;;4.00;;
41101;SDS011;26845;50.190;19.178;2024-02-21T13:00:54;10.80;;;3.20;;
41101;SDS011;26845;50.190;19.178;2024-02-21T13:03:35;11.50;;;3.40;;
41101;SDS011;26845;50.190;19.178;2024-02-21T13:06:15;8.10;;;3.50;;
41101;SDS011;26845;50.190;19.178;2024-02-21T13:08:56;9.40;;;3.20;;
41101;SDS011;26845;50.190;19.178;2024-02-21T13:11:35;9.80;;;3.30;;
41101;SDS011;26845;50.190;19.178;2024-02-21T13:14:15;9.70;;;4.00;;
41101;SDS011;26845;50.190;19.178;2024-02-21T13:16:55;13.20;;;3.40;;
41101;SDS011;26845;50.190;19.178;2024-02-21T13:19:35;12.40;;;3.70;;
41101;SDS011;26845;50.190;19.178;2024-02-21T13:22:15;8.50;;;3.30;;
41101;SDS011;26845;50.190;19.178;2024-02-21T13:24:55;9.70;;;3.90;;
41101;SDS011;26845;50.190;19.178;2024-02-21T13:27:47;6.80;;;2.70;;
41101;SDS011;26845;50.190;19.178;2024-02-21T13:30:31;10.50;;;3.40;;
41101;SDS011;26845;50.190;19.178;2024-02-21T13:33:11;11.00;;;3.40;;
41101;SDS011;26845;50.190;19.178;2024-02-21T13:35:51;8.20;;;3.00;;
41101;SDS011;26845;50.190;19.178;2024-02-21T13:38:31;9.50;;;3.60;;
41101;SDS011;26845;50.190;19.178;2024-02-21T13:41:11;11.80;;;4.10;;
41101;SDS011;26845;50.190;19.178;2024-02-21T13:43:51;9.40;;;3.60;;
41101;SDS011;26845;50.190;19.178;2024-02-21T13:46:31;11.80;;;3.80;;
41101;SDS011;26845;50.190;19.178;2024-02-21T13:49:11;11.10;;;4.30;;
41101;SDS011;26845;50.190;19.178;2024-02-21T13:51:51;11.80;;;5.10;;
41101;SDS011;26845;50.190;19.178;2024-02-21T13:54:31;12.30;;;4.60;;
41101;SDS011;26845;50.190;19.178;2024-02-21T13:57:11;10.00;;;3.90;;
41101;SDS011;26845;50.190;19.178;2024-02-21T13:59:51;14.80;;;4.90;;
41101;SDS011;26845;50.190;19.178;2024-02-21T14:02:31;10.60;;;5.80;;
41101;SDS011;26845;50.190;19.178;2024-02-21T14:05:11;13.20;;;4.90;;
41101;SDS011;26845;50.190;19.178;2024-02-21T14:07:52;12.90;;;5.80;;
41101;SDS011;26845;50.190;19.178;2024-02-21T14:10:31;18.30;;;6.20;;
41101;SDS011;26845;50.190;19.178;2024-02-21T14:13:11;18.80;;;5.40;;
41101;SDS011;26845;50.190;19.178;2024-02-21T14:15:51;15.70;;;5.50;;
41101;SDS011;26845;50.190;19.178;2024-02-21T14:18:31;11.60;;;5.00;;
41101;SDS011;26845;50.190;19.178;2024-02-21T14:21:11;14.00;;;5.30;;
41101;SDS011;26845;50.190;19.178;2024-02-21T14:23:51;14.10;;;5.70;;
41101;SDS011;26845;50.190;19.178;2024-02-21T14:26:31;11.70;;;5.10;;
41101;SDS011;26845;50.190;19.178;2024-02-21T14:29:11;14.10;;;6.00;;
41101;SDS011;26845;50.190;19.178;2024-02-21T14:31:51;12.40;;;5.30;;
41101;SDS011;26845;50.190;19.178;2024-02-21T14:34:31;13.00;;;4.70;;
41101;SDS011;26845;50.190;19.178;2024-02-21T14:37:11;13.70;;;5.20;;
41101;SDS011;26845;50.190;19.178;2024-02-21T14:39:51;12.60;;;5.10;;
41101;SDS011;26845;50.190;19.178;2024-02-21T14:42:31;9.70;;;4.30;;
41101;SDS011;26845;50.190;19.178;2024-02-21T14:45:11;9.70;;;3.70;;
41101;SDS011;26845;50.190;19.178;2024-02-21T14:47:51;13.00;;;5.20;;
41101;SDS011;26845;50.190;19.178;2024-02-21T14:50:31;14.20;;;5.20;;
41101;SDS011;26845;50.190;19.178;2024-02-21T14:53:11;12.60;;;4.70;;
41101;SDS011;26845;50.190;19.178;2024-02-21T14:55:51;10.80;;;4.60;;
41101;SDS011;26845;50.190;19.178;2024-02-21T14:58:31;10.30;;;4.10;;
41101;SDS011;26845;50.190;19.178;2024-02-21T15:01:11;8.80;;;4.50;;
41101;SDS011;26845;50.190;19.178;2024-02-21T15:03:51;12.70;;;4.10;;
41101;SDS011;26845;50.190;19.178;2024-02-21T15:06:31;12.10;;;4.60;;
41101;SDS011;26845;50.190;19.178;2024-02-21T15:09:11;15.70;;;4.70;;
41101;SDS011;26845;50.190;19.178;2024-02-21T15:11:51;9.50;;;4.50;;
41101;SDS011;26845;50.190;19.178;2024-02-21T15:14:31;12.30;;;4.30;;
41101;SDS011;26845;50.190;19.178;2024-02-21T15:17:11;11.60;;;5.20;;
41101;SDS011;26845;50.190;19.178;2024-02-21T15:19:51;12.30;;;4.50;;
41101;SDS011;26845;50.190;19.178;2024-02-21T15:22:31;11.30;;;4.00;;
41101;SDS011;26845;50.190;19.178;2024-02-21T15:25:11;8.00;;;3.90;;
41101;SDS011;26845;50.190;19.178;2024-02-21T15:27:51;8.80;;;3.70;;
41101;SDS011;26845;50.190;19.178;2024-02-21T15:30:31;13.10;;;4.60;;
41101;SDS011;26845;50.190;19.178;2024-02-21T15:33:11;10.70;;;4.20;;
41101;SDS011;26845;50.190;19.178;2024-02-21T15:35:51;9.50;;;4.40;;
41101;SDS011;26845;50.190;19.178;2024-02-21T15:38:31;11.30;;;4.30;;
41101;SDS011;26845;50.190;19.178;2024-02-21T15:41:11;10.40;;;4.80;;
41101;SDS011;26845;50.190;19.178;2024-02-21T15:43:51;15.60;;;4.80;;
41101;SDS011;26845;50.190;19.178;2024-02-21T15:46:31;10.10;;;4.70;;